createdAt,value
2018-07-31T00:01:14.004Z,62.67
2018-07-31T00:03:43.231Z,62.99
2018-07-31T00:06:17.301Z,63.26
2018-07-31T00:08:46.608Z,63.12
2018-07-31T00:11:15.692Z,63.02
2018-07-31T00:13:44.877Z,63.12
2018-07-31T00:16:13.950Z,63.35
2018-07-31T00:18:42.968Z,63.47
2018-07-31T00:21:11.857Z,63.47
2018-07-31T00:23:40.812Z,64.04
2018-07-31T00:26:09.789Z,64.19
2018-07-31T00:28:38.579Z,64.14
2018-07-31T00:31:07.385Z,64.27
2018-07-31T00:33:36.455Z,64.51
2018-07-31T00:36:05.442Z,64.48
2018-07-31T00:38:34.742Z,64.21
2018-07-31T00:41:03.993Z,64.09
2018-07-31T00:43:32.905Z,64.23
2018-07-31T00:46:01.878Z,63.89
2018-07-31T00:48:30.770Z,63.45
2018-07-31T00:50:59.597Z,63.07
2018-07-31T00:53:28.816Z,62.47
2018-07-31T00:55:57.654Z,61.81
2018-07-31T00:58:26.465Z,62.17
2018-07-31T01:00:55.514Z,62.30
2018-07-31T01:03:24.275Z,61.97
2018-07-31T01:05:53.370Z,62.36
2018-07-31T01:08:22.405Z,62.14
2018-07-31T01:10:51.267Z,62.01
2018-07-31T01:13:19.936Z,61.84
2018-07-31T01:15:49.157Z,61.78
2018-07-31T01:18:17.905Z,61.59
2018-07-31T01:20:50.021Z,61.73
2018-07-31T01:23:19.930Z,61.75
2018-07-31T01:25:51.171Z,61.77
2018-07-31T01:28:21.953Z,62.01
2018-07-31T01:30:50.813Z,62.79
2018-07-31T01:33:19.978Z,62.41
2018-07-31T01:35:49.030Z,62.82
2018-07-31T01:38:17.760Z,62.40
2018-07-31T01:40:47.053Z,62.05
2018-07-31T01:43:15.855Z,62.26
2018-07-31T01:45:44.623Z,63.02
2018-07-31T01:48:13.413Z,63.22
2018-07-31T01:50:42.206Z,63.57
2018-07-31T01:53:10.885Z,63.47
2018-07-31T01:55:39.622Z,64.00
2018-07-31T01:58:08.387Z,64.63
2018-07-31T02:00:37.147Z,64.56
2018-07-31T02:03:05.880Z,64.73
2018-07-31T02:05:34.553Z,64.83
2018-07-31T02:08:03.352Z,65.33
2018-07-31T02:10:32.224Z,65.05
2018-07-31T02:13:00.921Z,64.42
2018-07-31T02:15:29.694Z,64.34
2018-07-31T02:17:58.441Z,63.81
2018-07-31T02:20:27.399Z,63.67
2018-07-31T02:22:56.166Z,64.71
2018-07-31T02:25:24.871Z,64.59
2018-07-31T02:27:53.559Z,64.23
2018-07-31T02:30:23.168Z,64.45
2018-07-31T02:32:52.680Z,64.69
2018-07-31T02:35:21.428Z,64.46
2018-07-31T02:37:50.279Z,64.92
2018-07-31T02:40:19.045Z,64.44
2018-07-31T02:42:47.730Z,63.58
2018-07-31T02:45:16.524Z,63.26
2018-07-31T02:47:45.911Z,62.74
2018-07-31T02:50:14.690Z,62.85
2018-07-31T02:52:43.700Z,63.07
2018-07-31T02:55:12.674Z,62.96
2018-07-31T02:57:42.009Z,62.64
2018-07-31T03:00:11.677Z,62.65
2018-07-31T03:02:40.394Z,61.56
2018-07-31T03:05:11.017Z,62.03
2018-07-31T03:07:39.867Z,61.70
2018-07-31T03:10:10.420Z,61.28
2018-07-31T03:12:39.129Z,61.52
2018-07-31T03:15:09.404Z,62.24
2018-07-31T03:17:38.265Z,63.00
2018-07-31T03:20:08.094Z,62.94
2018-07-31T03:22:36.853Z,63.50
2018-07-31T03:25:06.362Z,63.90
2018-07-31T03:27:35.159Z,64.13
2018-07-31T03:30:04.015Z,64.64
2018-07-31T03:32:32.765Z,65.53
2018-07-31T03:35:01.732Z,65.40
2018-07-31T03:37:30.791Z,65.78
2018-07-31T03:39:59.536Z,66.21
2018-07-31T03:42:28.245Z,66.58
2018-07-31T03:44:57.177Z,66.35
2018-07-31T03:47:25.982Z,66.77
2018-07-31T03:49:54.664Z,66.99
2018-07-31T03:52:23.429Z,67.09
2018-07-31T03:54:52.223Z,67.39
2018-07-31T03:57:20.886Z,66.97
2018-07-31T03:59:49.813Z,66.96
2018-07-31T04:02:18.711Z,66.66
2018-07-31T04:04:47.504Z,66.25
2018-07-31T04:07:16.185Z,66.29
2018-07-31T04:09:44.964Z,66.01
2018-07-31T04:12:13.804Z,65.01
2018-07-31T04:14:42.900Z,64.89
2018-07-31T04:17:11.850Z,64.30
2018-07-31T04:19:40.925Z,64.37
2018-07-31T04:22:09.653Z,64.33
2018-07-31T04:24:38.722Z,64.30
2018-07-31T04:27:07.491Z,63.89
2018-07-31T04:29:36.178Z,63.67
2018-07-31T04:32:04.963Z,63.56
2018-07-31T04:34:33.750Z,64.19
2018-07-31T04:37:02.521Z,64.13
2018-07-31T04:39:31.441Z,63.96
2018-07-31T04:42:00.179Z,63.93
2018-07-31T04:44:28.901Z,64.14
2018-07-31T04:46:57.594Z,63.97
2018-07-31T04:49:26.389Z,63.95
2018-07-31T04:51:55.314Z,63.26
2018-07-31T04:54:24.078Z,63.18
2018-07-31T04:56:53.326Z,63.11
2018-07-31T04:59:21.990Z,62.21
2018-07-31T05:01:50.855Z,61.86
2018-07-31T05:04:19.694Z,61.83
2018-07-31T05:06:48.602Z,61.65
2018-07-31T05:09:17.553Z,61.77
2018-07-31T05:11:46.238Z,61.95
2018-07-31T05:14:15.098Z,61.99
2018-07-31T05:16:43.949Z,61.69
2018-07-31T05:19:12.694Z,61.58
2018-07-31T05:21:41.570Z,61.25
2018-07-31T05:24:10.307Z,60.83
2018-07-31T05:26:39.499Z,60.04
2018-07-31T05:29:08.273Z,59.71
2018-07-31T05:31:37.389Z,59.25
2018-07-31T05:34:06.336Z,59.33
2018-07-31T05:36:35.202Z,59.20
2018-07-31T05:39:04.055Z,59.04
2018-07-31T05:41:32.728Z,58.95
2018-07-31T05:44:01.437Z,58.83
2018-07-31T05:46:30.246Z,58.68
2018-07-31T05:48:58.969Z,58.20
2018-07-31T05:51:27.626Z,57.67
2018-07-31T05:53:56.349Z,57.73
2018-07-31T05:56:25.346Z,57.56
2018-07-31T05:58:54.244Z,57.43
2018-07-31T06:01:23.462Z,57.46
2018-07-31T06:03:52.563Z,57.39
2018-07-31T06:06:21.551Z,56.96
2018-07-31T06:08:50.268Z,57.13
2018-07-31T06:11:19.040Z,57.04
2018-07-31T06:13:48.025Z,57.37
2018-07-31T06:16:16.801Z,57.12
2018-07-31T06:18:45.490Z,56.98
2018-07-31T06:21:14.518Z,56.51
2018-07-31T06:23:43.344Z,55.89
2018-07-31T06:26:12.038Z,55.67
2018-07-31T06:28:40.714Z,55.99
2018-07-31T06:31:09.578Z,55.34
2018-07-31T06:33:38.325Z,54.96
2018-07-31T06:36:11.235Z,54.81
2018-07-31T06:38:40.206Z,54.43
2018-07-31T06:41:09.104Z,54.01
2018-07-31T06:43:37.961Z,53.75
2018-07-31T06:46:06.691Z,53.67
2018-07-31T06:48:35.417Z,53.39
2018-07-31T06:51:04.255Z,52.92
2018-07-31T06:53:32.998Z,52.62
2018-07-31T06:56:01.935Z,52.38
2018-07-31T06:58:30.744Z,52.14
2018-07-31T07:00:59.462Z,52.16
2018-07-31T07:03:28.270Z,51.49
2018-07-31T07:05:57.297Z,51.28
2018-07-31T07:08:25.973Z,50.78
2018-07-31T07:10:54.862Z,50.36
2018-07-31T07:13:23.630Z,49.84
2018-07-31T07:15:52.557Z,49.76
2018-07-31T07:18:21.345Z,49.87
2018-07-31T07:20:50.170Z,49.69
2018-07-31T07:23:18.935Z,49.28
2018-07-31T07:25:48.335Z,49.40
2018-07-31T07:28:17.201Z,48.71
2018-07-31T07:30:45.949Z,47.53
2018-07-31T07:33:14.669Z,47.85
2018-07-31T07:35:43.362Z,47.89
2018-07-31T07:38:12.147Z,47.42
2018-07-31T07:40:40.873Z,46.57
2018-07-31T07:43:09.744Z,46.11
2018-07-31T07:45:38.560Z,45.96
2018-07-31T07:48:07.307Z,45.45
2018-07-31T07:50:36.594Z,45.14
2018-07-31T07:53:05.394Z,45.10
2018-07-31T07:55:34.200Z,44.39
2018-07-31T07:58:03.084Z,43.73
2018-07-31T08:00:31.846Z,44.51
2018-07-31T08:03:00.820Z,43.78
2018-07-31T08:05:29.522Z,43.66
2018-07-31T08:07:58.709Z,43.15
2018-07-31T08:10:27.654Z,43.27
2018-07-31T08:12:56.862Z,42.78
2018-07-31T08:15:25.829Z,42.61
2018-07-31T08:17:54.592Z,42.19
2018-07-31T08:20:24.162Z,41.43
2018-07-31T08:22:53.067Z,41.85
2018-07-31T08:25:22.241Z,41.24
2018-07-31T08:27:51.785Z,41.70
2018-07-31T08:30:20.512Z,41.30
2018-07-31T08:32:49.323Z,40.53
2018-07-31T08:35:18.409Z,40.73
2018-07-31T08:37:47.433Z,40.40
2018-07-31T08:40:17.121Z,39.60
2018-07-31T08:42:46.314Z,40.58
2018-07-31T08:45:15.144Z,38.95
2018-07-31T08:47:43.894Z,39.00
2018-07-31T08:50:12.674Z,38.44
2018-07-31T08:52:42.064Z,37.18
2018-07-31T08:55:11.282Z,37.35
2018-07-31T08:57:40.156Z,37.59
2018-07-31T09:00:09.965Z,36.87
2018-07-31T09:02:39.120Z,35.66
2018-07-31T09:05:10.056Z,34.52
2018-07-31T09:07:39.616Z,35.68
2018-07-31T09:10:09.345Z,34.45
2018-07-31T09:12:44.497Z,35.18
2018-07-31T09:15:13.410Z,34.98
2018-07-31T09:17:42.301Z,35.13
2018-07-31T09:20:11.873Z,32.47
2018-07-31T09:22:40.646Z,32.95
2018-07-31T09:25:09.649Z,32.85
2018-07-31T09:27:38.553Z,32.93
2018-07-31T09:30:07.633Z,34.08
2018-07-31T09:32:41.527Z,35.48
2018-07-31T09:35:10.320Z,33.39
2018-07-31T09:37:39.152Z,32.65
2018-07-31T09:40:08.200Z,32.97
2018-07-31T09:42:37.142Z,32.37
2018-07-31T09:45:05.992Z,32.96
2018-07-31T09:47:34.767Z,33.07
2018-07-31T09:50:03.585Z,32.45
2018-07-31T09:52:32.330Z,32.12
2018-07-31T09:55:01.202Z,33.05
2018-07-31T09:57:54.418Z,31.87
2018-07-31T10:00:29.139Z,32.52
2018-07-31T10:02:57.809Z,32.58
2018-07-31T10:05:26.876Z,32.03
2018-07-31T10:07:55.598Z,32.41
2018-07-31T10:10:24.516Z,32.58
2018-07-31T10:12:53.257Z,30.87
2018-07-31T10:15:22.169Z,30.65
2018-07-31T10:17:51.000Z,30.68
2018-07-31T10:20:19.793Z,31.74
2018-07-31T10:22:48.570Z,31.36
2018-07-31T10:25:17.338Z,31.12
2018-07-31T10:27:46.063Z,31.33
2018-07-31T10:30:14.983Z,31.14
2018-07-31T10:32:43.788Z,31.24
2018-07-31T10:35:12.473Z,31.97
2018-07-31T10:37:41.326Z,30.58
2018-07-31T10:40:09.990Z,30.45
2018-07-31T10:42:38.808Z,30.60
2018-07-31T10:45:07.499Z,31.49
2018-07-31T10:47:36.221Z,30.25
2018-07-31T10:50:04.947Z,30.45
2018-07-31T10:52:34.200Z,28.96
2018-07-31T10:55:02.961Z,30.11
2018-07-31T10:57:31.697Z,28.59
2018-07-31T11:00:00.506Z,28.72
2018-07-31T11:02:29.215Z,29.68
2018-07-31T11:04:57.930Z,28.83
2018-07-31T11:07:26.617Z,29.14
2018-07-31T11:09:55.610Z,29.92
2018-07-31T11:12:24.327Z,29.71
2018-07-31T11:14:53.189Z,30.25
2018-07-31T11:17:22.007Z,30.09
2018-07-31T11:19:50.785Z,30.21
2018-07-31T11:22:19.448Z,30.56
2018-07-31T11:24:48.166Z,30.46
2018-07-31T11:27:16.886Z,29.73
2018-07-31T11:29:45.652Z,30.10
2018-07-31T11:32:14.537Z,29.18
2018-07-31T11:34:43.351Z,29.24
2018-07-31T11:37:12.266Z,29.02
2018-07-31T11:39:40.933Z,28.54
2018-07-31T11:42:09.958Z,28.68
2018-07-31T11:44:39.648Z,28.87
2018-07-31T11:47:08.413Z,27.92
2018-07-31T11:49:37.156Z,28.13
2018-07-31T11:52:06.010Z,29.51
2018-07-31T11:54:34.866Z,26.83
2018-07-31T11:57:03.700Z,27.39
2018-07-31T11:59:33.081Z,26.03
2018-07-31T12:02:02.027Z,26.04
2018-07-31T12:04:30.878Z,25.81
2018-07-31T12:07:00.236Z,24.96
2018-07-31T12:09:28.916Z,25.18
2018-07-31T12:11:57.594Z,26.24
2018-07-31T12:14:26.433Z,24.75
2018-07-31T12:16:59.375Z,23.23
2018-07-31T12:19:28.311Z,23.33
2018-07-31T12:21:56.982Z,23.21
2018-07-31T12:24:25.691Z,23.66
2018-07-31T12:26:54.494Z,24.58
2018-07-31T12:29:23.470Z,25.17
2018-07-31T12:31:52.213Z,26.22
2018-07-31T12:34:21.132Z,23.90
2018-07-31T12:36:49.814Z,22.71
2018-07-31T12:39:18.464Z,23.09
2018-07-31T12:41:47.204Z,22.04
2018-07-31T12:44:15.861Z,21.56
2018-07-31T12:46:44.669Z,21.04
2018-07-31T12:49:13.360Z,20.85
2018-07-31T12:51:42.258Z,21.00
2018-07-31T12:54:11.046Z,19.82
2018-07-31T12:56:39.770Z,18.59
2018-07-31T12:59:08.418Z,18.79
2018-07-31T13:01:37.093Z,18.25
2018-07-31T13:04:06.022Z,18.85
2018-07-31T13:06:35.327Z,19.22
2018-07-31T13:09:05.201Z,18.68
2018-07-31T13:11:34.119Z,19.38
2018-07-31T13:14:02.897Z,19.84
2018-07-31T13:16:32.208Z,20.16
2018-07-31T13:19:01.322Z,17.37
2018-07-31T13:21:30.115Z,17.82
2018-07-31T13:23:58.885Z,18.03
2018-07-31T13:26:27.849Z,17.28
2018-07-31T13:28:57.306Z,18.63
2018-07-31T13:31:26.285Z,19.54
2018-07-31T13:33:55.220Z,18.37
2018-07-31T13:36:24.200Z,17.89
2018-07-31T13:38:53.635Z,16.89
2018-07-31T13:41:23.810Z,17.44
2018-07-31T13:43:52.734Z,17.27
2018-07-31T13:46:21.637Z,17.81
2018-07-31T13:48:50.502Z,16.51
2018-07-31T13:51:19.221Z,17.23
2018-07-31T13:53:48.243Z,17.79
2018-07-31T13:56:17.012Z,18.43
2018-07-31T13:58:45.734Z,16.45
2018-07-31T14:01:14.510Z,16.26
2018-07-31T14:03:43.570Z,16.12
2018-07-31T14:06:12.505Z,16.24
2018-07-31T14:08:41.512Z,16.36
2018-07-31T14:11:10.622Z,17.36
2018-07-31T14:13:39.484Z,18.10
2018-07-31T14:16:08.682Z,18.63
2018-07-31T14:18:37.530Z,18.67
2018-07-31T14:21:06.283Z,19.15
2018-07-31T14:23:36.659Z,19.57
2018-07-31T14:26:05.647Z,19.49
2018-07-31T14:28:34.561Z,21.01
2018-07-31T14:31:03.603Z,20.97
2018-07-31T14:33:32.365Z,21.04
2018-07-31T14:36:01.132Z,21.99
2018-07-31T14:38:30.162Z,22.55
2018-07-31T14:40:58.897Z,22.46
2018-07-31T14:43:27.650Z,22.82
2018-07-31T14:45:56.389Z,22.96
2018-07-31T14:48:25.179Z,23.19
2018-07-31T14:50:53.934Z,24.54
2018-07-31T14:53:22.807Z,24.21
2018-07-31T14:55:51.766Z,23.16
2018-07-31T14:58:20.653Z,24.81
2018-07-31T15:00:49.753Z,23.86
2018-07-31T15:03:18.506Z,24.37
2018-07-31T15:05:47.408Z,23.46
2018-07-31T15:08:16.045Z,23.16
2018-07-31T15:10:45.095Z,22.99
2018-07-31T15:13:14.008Z,23.01
2018-07-31T15:15:42.805Z,23.45
2018-07-31T15:18:11.559Z,23.75
2018-07-31T15:20:40.258Z,24.00
2018-07-31T15:23:08.959Z,23.74
2018-07-31T15:25:37.779Z,24.01
2018-07-31T15:28:06.559Z,24.70
2018-07-31T15:30:35.309Z,23.81
2018-07-31T15:33:04.293Z,24.80
2018-07-31T15:35:33.151Z,24.17
2018-07-31T15:38:02.107Z,24.40
2018-07-31T15:40:31.298Z,23.72
2018-07-31T15:43:00.058Z,23.55
2018-07-31T15:45:29.408Z,24.30
2018-07-31T15:47:58.272Z,24.20
2018-07-31T15:50:28.398Z,24.07
2018-07-31T15:52:57.790Z,23.51
2018-07-31T15:55:26.778Z,24.90
2018-07-31T15:57:55.626Z,24.78
2018-07-31T16:00:24.523Z,24.56
2018-07-31T16:02:53.245Z,24.94
2018-07-31T16:05:21.914Z,24.67
2018-07-31T16:07:50.712Z,25.60
2018-07-31T16:10:19.622Z,24.55
2018-07-31T16:12:48.531Z,24.41
2018-07-31T16:15:17.505Z,24.65
2018-07-31T16:17:46.709Z,24.29
2018-07-31T16:20:15.467Z,23.72
2018-07-31T16:22:44.289Z,23.48
2018-07-31T16:25:13.178Z,24.19
2018-07-31T16:27:41.965Z,24.40
2018-07-31T16:30:10.811Z,24.85
2018-07-31T16:32:39.494Z,25.17
2018-07-31T16:35:08.174Z,24.62
2018-07-31T16:37:36.912Z,24.41
2018-07-31T16:40:06.445Z,24.84
2018-07-31T16:42:35.193Z,24.68
2018-07-31T16:45:03.993Z,25.29
2018-07-31T16:47:32.651Z,24.70
2018-07-31T16:50:01.409Z,25.41
2018-07-31T16:52:30.305Z,25.54
2018-07-31T16:54:59.147Z,25.30
2018-07-31T16:57:28.982Z,25.35
2018-07-31T16:59:57.749Z,25.46
2018-07-31T17:02:26.780Z,26.34
2018-07-31T17:04:55.759Z,25.76
2018-07-31T17:07:25.521Z,25.20
2018-07-31T17:09:55.473Z,25.99
2018-07-31T17:12:24.393Z,25.87
2018-07-31T17:14:53.256Z,25.43
2018-07-31T17:17:22.074Z,25.89
2018-07-31T17:19:51.069Z,26.19
2018-07-31T17:22:19.841Z,25.95
2018-07-31T17:24:48.632Z,26.11
2018-07-31T17:27:17.534Z,25.71
2018-07-31T17:29:46.379Z,25.85
2018-07-31T17:32:15.374Z,25.57
2018-07-31T17:34:44.268Z,26.03
2018-07-31T17:37:12.945Z,26.17
2018-07-31T17:39:41.866Z,26.32
2018-07-31T17:42:10.798Z,26.65
2018-07-31T17:44:39.516Z,27.00
2018-07-31T17:47:08.388Z,27.41
2018-07-31T17:49:37.445Z,27.76
2018-07-31T17:52:06.347Z,28.51
2018-07-31T17:54:35.351Z,29.22
2018-07-31T17:57:04.189Z,28.76
2018-07-31T17:59:32.874Z,28.83
2018-07-31T18:02:02.006Z,28.76
2018-07-31T18:04:30.824Z,29.12
2018-07-31T18:06:59.794Z,29.83
2018-07-31T18:09:28.557Z,29.82
2018-07-31T18:11:57.266Z,29.41
2018-07-31T18:14:26.079Z,29.63
2018-07-31T18:16:54.809Z,29.99
2018-07-31T18:19:25.332Z,29.99
2018-07-31T18:21:54.016Z,29.53
2018-07-31T18:24:22.756Z,29.92
2018-07-31T18:26:51.645Z,30.04
2018-07-31T18:29:20.333Z,29.93
2018-07-31T18:31:49.324Z,30.63
2018-07-31T18:34:18.062Z,30.61
2018-07-31T18:36:46.771Z,30.97
2018-07-31T18:39:15.583Z,31.61
2018-07-31T18:41:44.396Z,30.94
2018-07-31T18:44:13.197Z,31.02
2018-07-31T18:46:41.989Z,31.25
2018-07-31T18:49:10.964Z,30.86
2018-07-31T18:51:40.202Z,31.21
2018-07-31T18:54:09.274Z,31.16
2018-07-31T18:56:38.426Z,31.16
2018-07-31T18:59:08.659Z,31.36
2018-07-31T19:01:37.674Z,31.68
2018-07-31T19:04:06.674Z,31.59
2018-07-31T19:06:35.789Z,32.07
2018-07-31T19:09:07.202Z,32.64
2018-07-31T19:11:36.140Z,32.60
2018-07-31T19:14:05.081Z,33.55
2018-07-31T19:16:34.801Z,33.91
2018-07-31T19:19:03.671Z,33.91
2018-07-31T19:21:32.363Z,34.35
2018-07-31T19:24:01.675Z,33.52
2018-07-31T19:26:30.779Z,32.09
2018-07-31T19:28:59.779Z,31.69
2018-07-31T19:31:28.958Z,31.40
2018-07-31T19:33:57.902Z,32.12
2018-07-31T19:36:26.984Z,30.98
2018-07-31T19:38:55.661Z,31.28
2018-07-31T19:41:24.526Z,31.09
2018-07-31T19:43:53.684Z,31.26
2018-07-31T19:46:22.599Z,31.50
2018-07-31T19:48:51.619Z,31.59
2018-07-31T19:51:20.596Z,31.56
2018-07-31T19:53:49.626Z,31.80
2018-07-31T19:56:18.310Z,31.96
2018-07-31T19:58:47.193Z,31.89
2018-07-31T20:01:16.012Z,32.38
2018-07-31T20:03:44.752Z,32.84
2018-07-31T20:06:13.462Z,32.84
2018-07-31T20:08:42.210Z,32.96
2018-07-31T20:11:11.238Z,32.72
2018-07-31T20:13:40.040Z,33.08
2018-07-31T20:16:08.820Z,33.27
2018-07-31T20:18:37.677Z,33.44
2018-07-31T20:21:06.388Z,33.61
2018-07-31T20:23:35.168Z,33.61
2018-07-31T20:26:04.061Z,33.85
2018-07-31T20:28:32.832Z,34.20
2018-07-31T20:31:01.969Z,34.35
2018-07-31T20:33:31.327Z,34.59
2018-07-31T20:36:00.029Z,34.80
2018-07-31T20:38:28.679Z,34.94
2018-07-31T20:40:57.432Z,34.99
2018-07-31T20:43:26.219Z,35.25
2018-07-31T20:45:55.113Z,35.59
2018-07-31T20:48:24.348Z,35.79
2018-07-31T20:50:53.392Z,35.85
2018-07-31T20:53:22.273Z,35.53
2018-07-31T20:55:50.955Z,35.84
2018-07-31T20:58:19.970Z,35.79
2018-07-31T21:00:48.901Z,35.56
2018-07-31T21:03:17.976Z,35.70
2018-07-31T21:05:46.712Z,35.77
2018-07-31T21:08:15.735Z,35.90
2018-07-31T21:10:44.509Z,36.07
2018-07-31T21:13:13.304Z,36.48
2018-07-31T21:15:42.227Z,36.64
2018-07-31T21:18:11.065Z,36.96
2018-07-31T21:20:40.063Z,37.11
2018-07-31T21:23:08.964Z,37.17
2018-07-31T21:25:37.742Z,37.37
2018-07-31T21:28:06.710Z,37.62
2018-07-31T21:30:35.500Z,38.46
2018-07-31T21:33:04.463Z,39.08
2018-07-31T21:35:34.170Z,38.88
2018-07-31T21:38:03.188Z,37.57
2018-07-31T21:40:31.928Z,37.72
2018-07-31T21:43:00.675Z,37.96
2018-07-31T21:45:29.355Z,37.90
2018-07-31T21:47:58.127Z,38.07
2018-07-31T21:50:26.994Z,37.91
2018-07-31T21:52:56.638Z,38.16
2018-07-31T21:55:25.485Z,39.04
2018-07-31T21:57:54.249Z,39.21
2018-07-31T22:00:23.125Z,39.54
2018-07-31T22:02:51.886Z,38.66
2018-07-31T22:05:20.867Z,38.46
2018-07-31T22:07:49.615Z,38.77
2018-07-31T22:10:18.323Z,38.70
2018-07-31T22:12:47.078Z,38.97
2018-07-31T22:15:15.798Z,39.81
2018-07-31T22:17:44.490Z,40.03
2018-07-31T22:20:13.210Z,39.40
2018-07-31T22:22:42.357Z,39.62
2018-07-31T22:25:11.121Z,41.37
2018-07-31T22:27:39.928Z,42.31
2018-07-31T22:30:08.887Z,42.16
2018-07-31T22:32:38.007Z,42.78
2018-07-31T22:35:07.277Z,42.85
2018-07-31T22:37:35.940Z,41.83
2018-07-31T22:40:04.769Z,41.92
2018-07-31T22:42:33.879Z,41.86
2018-07-31T22:45:02.840Z,42.25
2018-07-31T22:47:31.491Z,42.16
2018-07-31T22:50:00.221Z,42.03
2018-07-31T22:52:28.930Z,42.38
2018-07-31T22:54:58.146Z,42.53
2018-07-31T22:57:26.826Z,42.84
2018-07-31T22:59:55.770Z,42.94
2018-07-31T23:02:24.525Z,43.02
2018-07-31T23:04:53.329Z,43.29
2018-07-31T23:07:22.113Z,43.09
2018-07-31T23:09:57.226Z,43.12
2018-07-31T23:12:26.770Z,43.85
2018-07-31T23:14:55.666Z,44.19
2018-07-31T23:17:24.521Z,44.00
2018-07-31T23:19:53.322Z,44.48
2018-07-31T23:22:50.689Z,44.38
2018-07-31T23:25:19.766Z,44.24
2018-07-31T23:27:48.484Z,44.75
2018-07-31T23:30:17.261Z,45.00
2018-07-31T23:32:46.017Z,45.22
2018-07-31T23:35:14.803Z,45.52
2018-07-31T23:37:43.555Z,45.73
2018-07-31T23:40:12.287Z,45.78
2018-07-31T23:42:41.128Z,46.20
2018-07-31T23:45:09.881Z,46.62
2018-07-31T23:47:38.657Z,46.75
2018-07-31T23:50:07.479Z,46.85
2018-07-31T23:52:36.292Z,46.99
2018-07-31T23:55:05.273Z,47.44
2018-07-31T23:57:34.309Z,48.01
